Time;durP1;ratioP1;P1;durP2;ratioP2;P2;SDS_P1;SDS_P2;PMS_P1;PMS_P2;Temp;Humidity;BMP_temperature;BMP_pressure;BME280_temperature;BME280_humidity;BME280_pressure;Samples;Min_cycle;Max_cycle;Signal;HPM_P1;HPM_P2
2021/07/22 00:00:31;;;;;;;20.85;10.70;;;;;;;;;;6317591;22;20019;-85
2021/07/22 00:02:57;;;;;;;25.65;12.02;;;;;;;;;;6320698;22;20023;-85
2021/07/22 00:05:24;;;;;;;20.70;11.82;;;;;;;;;;6322546;22;20074;-85
2021/07/22 00:07:51;;;;;;;18.33;10.85;;;;;;;;;;6320344;22;20030;-85
2021/07/22 00:10:17;;;;;;;17.05;10.32;;;;;;;;;;6320714;22;20023;-85
2021/07/22 00:12:44;;;;;;;20.50;12.43;;;;;;;;;;6321699;22;20062;-85
2021/07/22 00:15:17;;;;;;;18.70;11.15;;;;;;;;;;6322524;22;20377;-85
2021/07/22 00:17:44;;;;;;;17.38;11.70;;;;;;;;;;6321080;22;20030;-85
2021/07/22 00:20:11;;;;;;;12.65;10.38;;;;;;;;;;6320616;22;20454;-85
2021/07/22 00:22:38;;;;;;;22.58;12.13;;;;;;;;;;6321709;22;20026;-84
2021/07/22 00:25:05;;;;;;;16.23;10.60;;;;;;;;;;6348281;22;20346;-84
2021/07/22 00:27:32;;;;;;;17.17;10.65;;;;;;;;;;6320399;22;20027;-85
2021/07/22 00:30:12;;;;;;;14.70;10.73;;;;;;;;;;6319904;22;20098;-84
2021/07/22 00:32:39;;;;;;;19.23;11.55;;;;;;;;;;6347906;22;20027;-84
2021/07/22 00:35:06;;;;;;;17.70;11.18;;;;;;;;;;6319136;22;20041;-84
2021/07/22 00:37:33;;;;;;;12.85;10.40;;;;;;;;;;6347544;22;20030;-84
2021/07/22 00:39:59;;;;;;;16.63;9.90;;;;;;;;;;6348459;22;20562;-84
2021/07/22 00:42:26;;;;;;;14.18;10.02;;;;;;;;;;6321064;22;20022;-84
2021/07/22 00:44:52;;;;;;;18.70;10.65;;;;;;;;;;6322838;22;20434;-84
2021/07/22 00:47:19;;;;;;;14.48;10.18;;;;;;;;;;6323195;22;20080;-84
2021/07/22 00:49:50;;;;;;;21.75;10.52;;;;;;;;;;6353154;22;20177;-85
2021/07/22 00:52:16;;;;;;;16.50;10.57;;;;;;;;;;6358098;22;20027;-84
2021/07/22 00:54:49;;;;;;;17.98;10.43;;;;;;;;;;6329284;22;20031;-84
2021/07/22 00:57:16;;;;;;;17.33;9.90;;;;;;;;;;6322958;22;20065;-84
2021/07/22 00:59:43;;;;;;;14.70;10.88;;;;;;;;;;6348109;22;20050;-84
2021/07/22 01:02:16;;;;;;;14.95;10.25;;;;;;;;;;6345956;22;20409;-84
2021/07/22 01:04:43;;;;;;;13.63;8.98;;;;;;;;;;6318815;22;20081;-84
2021/07/22 01:07:10;;;;;;;19.60;9.77;;;;;;;;;;6318063;22;20323;-84
2021/07/22 01:09:36;;;;;;;15.48;10.55;;;;;;;;;;6320494;22;20110;-84
2021/07/22 01:12:03;;;;;;;15.45;9.45;;;;;;;;;;6319172;22;20018;-84
2021/07/22 01:14:30;;;;;;;14.40;9.82;;;;;;;;;;6319442;22;20076;-84
2021/07/22 01:16:56;;;;;;;16.90;9.77;;;;;;;;;;6321293;22;20041;-84
2021/07/22 01:19:22;;;;;;;16.55;9.38;;;;;;;;;;6319450;22;20265;-84
2021/07/22 01:21:49;;;;;;;15.85;9.40;;;;;;;;;;6320626;22;20034;-84
2021/07/22 01:24:19;;;;;;;14.48;9.00;;;;;;;;;;6320596;22;20442;-84
2021/07/22 01:26:47;;;;;;;14.30;9.77;;;;;;;;;;6347627;22;20077;-84
2021/07/22 01:29:14;;;;;;;13.52;9.20;;;;;;;;;;6316890;22;20411;-83
2021/07/22 01:31:40;;;;;;;13.90;9.38;;;;;;;;;;6320793;22;20022;-83
2021/07/22 01:34:07;;;;;;;17.33;9.50;;;;;;;;;;6319853;22;20026;-83
2021/07/22 01:36:34;;;;;;;15.40;8.98;;;;;;;;;;6320035;22;20034;-83
2021/07/22 01:39:02;;;;;;;17.27;9.63;;;;;;;;;;6347554;22;20300;-83
2021/07/22 01:41:29;;;;;;;14.68;8.60;;;;;;;;;;6320809;22;20054;-83
2021/07/22 01:43:56;;;;;;;15.15;8.85;;;;;;;;;;6348371;22;20316;-83
2021/07/22 01:46:25;;;;;;;13.57;8.23;;;;;;;;;;6348468;22;20023;-85
2021/07/22 01:48:57;;;;;;;13.32;7.85;;;;;;;;;;6322330;22;20084;-84
2021/07/22 01:51:23;;;;;;;14.38;8.63;;;;;;;;;;6321747;22;20044;-85
2021/07/22 01:53:48;;;;;;;15.97;9.70;;;;;;;;;;6348698;22;20038;-85
2021/07/22 01:56:16;;;;;;;15.40;8.75;;;;;;;;;;6333244;22;20389;-84
2021/07/22 01:58:42;;;;;;;13.55;8.95;;;;;;;;;;6361249;22;20023;-85
2021/07/22 02:01:09;;;;;;;12.15;8.18;;;;;;;;;;6330889;22;20035;-85
2021/07/22 02:03:45;;;;;;;16.60;8.90;;;;;;;;;;6349976;22;20036;-85
2021/07/22 02:06:12;;;;;;;15.30;8.95;;;;;;;;;;6347441;22;20027;-85
2021/07/22 02:08:38;;;;;;;13.85;8.98;;;;;;;;;;6321869;22;20023;-85
2021/07/22 02:11:05;;;;;;;15.05;9.57;;;;;;;;;;6348629;22;20336;-85
2021/07/22 02:13:32;;;;;;;16.88;9.07;;;;;;;;;;6319907;22;20034;-85
2021/07/22 02:16:04;;;;;;;15.18;8.73;;;;;;;;;;6320190;22;20026;-85
2021/07/22 02:18:31;;;;;;;10.75;7.43;;;;;;;;;;6321458;22;20022;-85
2021/07/22 02:20:58;;;;;;;14.23;8.10;;;;;;;;;;6320285;22;20019;-85
2021/07/22 02:23:24;;;;;;;13.02;8.45;;;;;;;;;;6317390;22;20208;-85
2021/07/22 02:25:53;;;;;;;14.07;8.43;;;;;;;;;;6317633;22;20019;-85
2021/07/22 02:28:20;;;;;;;18.55;8.75;;;;;;;;;;6346687;22;20388;-85
2021/07/22 02:30:47;;;;;;;17.45;9.27;;;;;;;;;;6314758;22;20054;-85
2021/07/22 02:33:13;;;;;;;16.85;9.30;;;;;;;;;;6315841;22;20033;-85
2021/07/22 02:35:40;;;;;;;16.30;8.35;;;;;;;;;;6315214;22;20027;-85
2021/07/22 02:38:07;;;;;;;13.63;8.20;;;;;;;;;;6314049;22;20023;-85
2021/07/22 02:40:33;;;;;;;13.88;8.40;;;;;;;;;;6317099;22;20033;-85
2021/07/22 02:43:00;;;;;;;18.23;9.02;;;;;;;;;;6316338;22;20023;-85
2021/07/22 02:45:26;;;;;;;14.52;8.68;;;;;;;;;;6321557;22;20019;-85
2021/07/22 02:47:53;;;;;;;14.70;8.60;;;;;;;;;;6320697;22;20332;-84
2021/07/22 02:50:19;;;;;;;12.75;8.68;;;;;;;;;;6321685;22;20023;-84
2021/07/22 02:52:46;;;;;;;13.02;8.32;;;;;;;;;;6321409;22;20027;-84
2021/07/22 02:55:22;;;;;;;11.35;8.32;;;;;;;;;;6319684;22;20050;-84
2021/07/22 02:57:48;;;;;;;17.38;8.68;;;;;;;;;;6315265;22;20152;-84
2021/07/22 03:00:15;;;;;;;17.02;9.52;;;;;;;;;;6315659;22;20057;-84
2021/07/22 03:02:42;;;;;;;16.23;9.90;;;;;;;;;;6313908;22;20019;-85
2021/07/22 03:05:09;;;;;;;18.25;9.40;;;;;;;;;;6314702;22;20051;-84
2021/07/22 03:07:38;;;;;;;16.13;9.23;;;;;;;;;;6316126;22;20023;-85
2021/07/22 03:10:05;;;;;;;13.15;8.73;;;;;;;;;;6316281;22;20023;-84
2021/07/22 03:12:32;;;;;;;15.82;10.20;;;;;;;;;;6317275;22;20030;-83
2021/07/22 03:14:58;;;;;;;19.38;11.77;;;;;;;;;;6314405;22;20042;-84
2021/07/22 03:17:25;;;;;;;17.20;11.88;;;;;;;;;;6315726;22;20035;-84
2021/07/22 03:19:51;;;;;;;16.80;10.32;;;;;;;;;;6314691;22;20188;-85
2021/07/22 03:22:18;;;;;;;16.95;10.45;;;;;;;;;;6316643;22;20031;-84
2021/07/22 03:24:45;;;;;;;23.00;12.88;;;;;;;;;;6316306;22;20083;-84
2021/07/22 03:27:11;;;;;;;18.38;11.27;;;;;;;;;;6316737;22;20030;-84
2021/07/22 03:29:39;;;;;;;19.33;12.13;;;;;;;;;;6315501;22;20360;-85
2021/07/22 03:32:07;;;;;;;17.23;11.77;;;;;;;;;;6314401;22;20081;-85
2021/07/22 03:34:33;;;;;;;18.20;11.70;;;;;;;;;;6313926;22;20114;-84
2021/07/22 03:37:02;;;;;;;21.30;13.05;;;;;;;;;;6316773;22;20110;-84
2021/07/22 03:39:28;;;;;;;16.42;11.65;;;;;;;;;;6317144;22;20034;-85
2021/07/22 03:41:58;;;;;;;20.38;11.90;;;;;;;;;;6318378;22;20103;-85
2021/07/22 03:44:26;;;;;;;16.20;10.77;;;;;;;;;;6319560;22;20027;-84
2021/07/22 03:46:52;;;;;;;19.50;12.50;;;;;;;;;;6322237;22;20046;-87
2021/07/22 03:49:19;;;;;;;19.73;11.60;;;;;;;;;;6324762;22;20074;-87
2021/07/22 03:51:45;;;;;;;19.67;11.65;;;;;;;;;;6325185;22;20031;-85
2021/07/22 03:54:14;;;;;;;22.92;12.85;;;;;;;;;;6324285;22;20023;-85
2021/07/22 03:56:43;;;;;;;20.73;12.40;;;;;;;;;;6326755;22;20081;-86
2021/07/22 03:59:10;;;;;;;23.02;13.77;;;;;;;;;;6330093;22;20011;-85
2021/07/22 04:01:36;;;;;;;22.52;13.40;;;;;;;;;;6328613;22;20083;-85
2021/07/22 04:04:06;;;;;;;19.90;12.40;;;;;;;;;;6329941;22;20024;-84
2021/07/22 04:06:40;;;;;;;20.27;13.57;;;;;;;;;;6329901;22;20082;-85
2021/07/22 04:09:09;;;;;;;21.38;12.35;;;;;;;;;;6319772;22;20413;-85
2021/07/22 04:11:36;;;;;;;19.25;12.27;;;;;;;;;;6320775;22;20435;-85
2021/07/22 04:14:06;;;;;;;23.10;13.07;;;;;;;;;;6318626;22;20035;-85
2021/07/22 04:16:34;;;;;;;21.17;13.00;;;;;;;;;;6329537;22;20015;-85
2021/07/22 04:19:04;;;;;;;23.13;13.10;;;;;;;;;;6331913;22;20371;-84
2021/07/22 04:21:31;;;;;;;24.75;14.05;;;;;;;;;;6332285;22;20059;-85
2021/07/22 04:23:57;;;;;;;25.38;13.90;;;;;;;;;;6326870;22;20035;-85
2021/07/22 04:26:42;;;;;;;20.20;13.73;;;;;;;;;;6324233;22;20020;-85
2021/07/22 04:29:08;;;;;;;21.98;13.68;;;;;;;;;;6331964;22;20028;-84
2021/07/22 04:31:35;;;;;;;22.15;14.73;;;;;;;;;;6330825;22;20388;-84
2021/07/22 04:34:02;;;;;;;22.00;14.23;;;;;;;;;;6351398;22;20084;-84
2021/07/22 04:36:30;;;;;;;28.83;13.98;;;;;;;;;;6323317;22;20022;-83
2021/07/22 04:38:56;;;;;;;20.17;12.68;;;;;;;;;;6324099;22;20056;-84
2021/07/22 04:41:23;;;;;;;26.08;13.43;;;;;;;;;;6359050;22;20018;-84
2021/07/22 04:43:56;;;;;;;24.70;12.57;;;;;;;;;;6331521;22;20127;-84
2021/07/22 04:46:23;;;;;;;17.02;11.13;;;;;;;;;;6358023;22;20078;-85
2021/07/22 04:48:53;;;;;;;21.00;10.75;;;;;;;;;;6354322;22;20029;-85
2021/07/22 04:51:35;;;;;;;21.85;11.23;;;;;;;;;;6323930;22;20022;-84
2021/07/22 04:54:02;;;;;;;15.85;10.00;;;;;;;;;;6348426;22;20163;-84
2021/07/22 04:56:28;;;;;;;15.98;10.25;;;;;;;;;;6347606;22;20051;-83
2021/07/22 04:58:55;;;;;;;17.65;10.68;;;;;;;;;;6320363;22;20074;-84
2021/07/22 05:01:22;;;;;;;20.83;10.43;;;;;;;;;;6346221;22;20034;-86
2021/07/22 05:03:49;;;;;;;20.35;10.43;;;;;;;;;;6347540;22;20053;-84
2021/07/22 05:06:21;;;;;;;14.93;8.68;;;;;;;;;;6321104;22;20027;-85
2021/07/22 05:08:48;;;;;;;16.95;8.45;;;;;;;;;;6317344;22;20023;-84
2021/07/22 05:11:15;;;;;;;16.55;9.18;;;;;;;;;;6346206;22;20050;-84
2021/07/22 05:13:48;;;;;;;16.83;9.07;;;;;;;;;;6315229;22;20034;-85
2021/07/22 05:16:15;;;;;;;17.05;8.50;;;;;;;;;;6314429;22;20026;-84
2021/07/22 05:18:41;;;;;;;13.77;7.85;;;;;;;;;;6316022;22;20271;-84
2021/07/22 05:21:08;;;;;;;19.27;9.15;;;;;;;;;;6315268;22;20080;-85
2021/07/22 05:23:41;;;;;;;18.33;8.07;;;;;;;;;;6314810;22;20023;-84
2021/07/22 05:26:10;;;;;;;14.00;7.07;;;;;;;;;;6313845;22;20022;-84
2021/07/22 05:28:37;;;;;;;15.88;6.82;;;;;;;;;;6315736;22;20080;-85
2021/07/22 05:31:09;;;;;;;8.50;5.15;;;;;;;;;;6307376;22;20030;-84
2021/07/22 05:33:36;;;;;;;11.55;5.72;;;;;;;;;;6309276;22;20309;-85
2021/07/22 05:36:04;;;;;;;8.32;4.85;;;;;;;;;;6310968;22;20023;-85
2021/07/22 05:38:31;;;;;;;10.32;5.50;;;;;;;;;;6311825;22;20023;-83
2021/07/22 05:40:58;;;;;;;10.40;5.18;;;;;;;;;;6308458;22;20200;-84
2021/07/22 05:43:28;;;;;;;9.65;5.35;;;;;;;;;;6308508;22;20053;-84
2021/07/22 05:45:55;;;;;;;9.50;5.22;;;;;;;;;;6310297;22;20114;-85
2021/07/22 05:48:22;;;;;;;10.15;5.22;;;;;;;;;;6309482;22;20023;-84
2021/07/22 05:51:15;;;;;;;11.43;5.72;;;;;;;;;;6312554;22;20027;-85
2021/07/22 05:53:44;;;;;;;10.07;4.97;;;;;;;;;;6305529;22;20020;-85
2021/07/22 05:56:17;;;;;;;11.65;4.82;;;;;;;;;;6307395;22;20033;-84
2021/07/22 05:58:44;;;;;;;10.45;5.18;;;;;;;;;;6310868;22;20019;-84
2021/07/22 06:01:11;;;;;;;10.35;4.72;;;;;;;;;;6309790;22;20076;-85
2021/07/22 06:03:37;;;;;;;9.00;5.07;;;;;;;;;;6311108;22;20027;-84
2021/07/22 06:06:05;;;;;;;10.40;4.63;;;;;;;;;;6311727;22;20149;-84
2021/07/22 06:08:34;;;;;;;8.52;4.78;;;;;;;;;;6316814;22;20031;-86
2021/07/22 06:11:07;;;;;;;7.03;4.57;;;;;;;;;;6323224;22;20214;-84
2021/07/22 06:13:34;;;;;;;7.18;4.28;;;;;;;;;;6322347;22;20015;-85
2021/07/22 06:16:04;;;;;;;8.00;4.43;;;;;;;;;;6312260;22;20279;-84
2021/07/22 06:18:31;;;;;;;9.55;4.43;;;;;;;;;;6309805;22;20027;-85
2021/07/22 06:20:58;;;;;;;9.38;4.70;;;;;;;;;;6312968;22;20273;-84
2021/07/22 06:23:24;;;;;;;9.30;3.58;;;;;;;;;;6309704;22;20131;-84
2021/07/22 06:25:58;;;;;;;6.13;3.85;;;;;;;;;;6308774;22;20027;-84
2021/07/22 06:28:43;;;;;;;8.38;3.53;;;;;;;;;;6307967;22;20022;-84
2021/07/22 06:31:09;;;;;;;3.97;2.88;;;;;;;;;;6337380;22;20048;-85
2021/07/22 06:33:36;;;;;;;7.10;3.50;;;;;;;;;;6316113;22;20030;-85
2021/07/22 06:36:03;;;;;;;7.93;3.20;;;;;;;;;;6317400;22;20045;-83
2021/07/22 06:38:31;;;;;;;5.50;2.70;;;;;;;;;;6319387;22;20428;-84
2021/07/22 06:40:58;;;;;;;6.72;3.20;;;;;;;;;;6317619;22;20023;-85
2021/07/22 06:43:27;;;;;;;4.22;2.90;;;;;;;;;;6342644;22;20046;-86
2021/07/22 06:45:56;;;;;;;8.63;3.00;;;;;;;;;;6316877;22;20029;-84
2021/07/22 06:48:23;;;;;;;7.07;2.72;;;;;;;;;;6318536;22;20057;-85
2021/07/22 06:50:53;;;;;;;5.25;2.70;;;;;;;;;;6318085;22;20023;-84
2021/07/22 06:53:21;;;;;;;11.05;3.47;;;;;;;;;;6315851;22;20031;-85
2021/07/22 06:55:48;;;;;;;5.80;3.28;;;;;;;;;;6316285;22;20201;-85
2021/07/22 06:58:15;;;;;;;4.40;3.03;;;;;;;;;;6314686;22;20200;-85
2021/07/22 07:00:46;;;;;;;4.78;2.90;;;;;;;;;;6342266;22;20027;-84
2021/07/22 07:03:12;;;;;;;15.13;3.22;;;;;;;;;;6340266;22;20101;-85
2021/07/22 07:05:41;;;;;;;7.38;3.28;;;;;;;;;;6312998;22;20019;-85
2021/07/22 07:08:08;;;;;;;4.93;3.35;;;;;;;;;;6313791;22;20027;-85
2021/07/22 07:10:41;;;;;;;4.88;3.45;;;;;;;;;;6315344;22;20019;-85
2021/07/22 07:13:11;;;;;;;8.90;3.88;;;;;;;;;;6323343;22;20018;-85
2021/07/22 07:15:42;;;;;;;5.68;3.40;;;;;;;;;;6327999;22;20014;-85
2021/07/22 07:18:10;;;;;;;6.85;3.50;;;;;;;;;;6347311;22;20057;-85
2021/07/22 07:20:36;;;;;;;5.78;2.95;;;;;;;;;;6315285;22;20366;-85
2021/07/22 07:23:05;;;;;;;7.45;3.08;;;;;;;;;;6322719;22;20007;-84
2021/07/22 07:25:33;;;;;;;5.13;3.30;;;;;;;;;;6328672;22;20002;-85
2021/07/22 07:28:00;;;;;;;4.60;3.00;;;;;;;;;;6318905;22;20022;-85
2021/07/22 07:30:27;;;;;;;8.18;3.90;;;;;;;;;;6313821;22;20027;-85
2021/07/22 07:32:54;;;;;;;9.07;3.47;;;;;;;;;;6342614;22;20482;-86
2021/07/22 07:35:25;;;;;;;7.82;3.03;;;;;;;;;;6315859;22;20119;-84
2021/07/22 07:38:07;;;;;;;6.70;3.53;;;;;;;;;;6347582;22;20031;-84
2021/07/22 07:40:37;;;;;;;6.70;2.60;;;;;;;;;;6324800;22;20011;-84
2021/07/22 07:43:04;;;;;;;4.97;3.10;;;;;;;;;;6358260;22;20091;-84
2021/07/22 07:45:31;;;;;;;6.60;3.28;;;;;;;;;;6357081;22;20099;-85
2021/07/22 07:48:00;;;;;;;6.63;3.38;;;;;;;;;;6320067;22;20029;-84
2021/07/22 07:50:26;;;;;;;4.80;3.22;;;;;;;;;;6319265;22;20026;-84
2021/07/22 07:52:53;;;;;;;7.75;3.40;;;;;;;;;;6317050;22;20045;-84
2021/07/22 07:55:20;;;;;;;7.25;3.22;;;;;;;;;;6345999;22;20045;-86
2021/07/22 07:57:46;;;;;;;6.50;3.55;;;;;;;;;;6318047;22;20142;-84
2021/07/22 08:00:13;;;;;;;6.03;3.80;;;;;;;;;;6316554;22;20023;-85
2021/07/22 08:02:41;;;;;;;8.75;4.05;;;;;;;;;;6342903;22;20021;-85
2021/07/22 08:05:08;;;;;;;6.53;3.80;;;;;;;;;;6344718;22;20015;-85
2021/07/22 08:07:34;;;;;;;7.60;3.45;;;;;;;;;;6315743;22;20023;-85
2021/07/22 08:10:02;;;;;;;10.07;3.72;;;;;;;;;;6346110;22;20217;-85
2021/07/22 08:12:31;;;;;;;8.85;3.55;;;;;;;;;;6325150;22;20015;-85
2021/07/22 08:15:05;;;;;;;8.60;4.05;;;;;;;;;;6322544;22;20023;-87
2021/07/22 08:17:46;;;;;;;8.90;3.80;;;;;;;;;;6319894;22;20223;-85
2021/07/22 08:20:13;;;;;;;7.18;3.40;;;;;;;;;;6344263;22;20027;-86
2021/07/22 08:22:40;;;;;;;7.45;3.83;;;;;;;;;;6342654;22;20277;-85
2021/07/22 08:25:10;;;;;;;7.57;3.45;;;;;;;;;;6343237;22;20022;-84
2021/07/22 08:27:37;;;;;;;8.25;3.53;;;;;;;;;;6343112;22;20023;-84
2021/07/22 08:30:04;;;;;;;8.27;3.88;;;;;;;;;;6310295;22;20088;-85
2021/07/22 08:32:41;;;;;;;10.55;4.22;;;;;;;;;;6315666;22;20023;-85
2021/07/22 08:35:08;;;;;;;6.72;3.75;;;;;;;;;;6313714;22;20073;-85
2021/07/22 08:37:37;;;;;;;8.27;4.07;;;;;;;;;;6312963;22;20243;-85
2021/07/22 08:40:14;;;;;;;8.23;3.83;;;;;;;;;;6311778;22;20053;-85
2021/07/22 08:42:43;;;;;;;8.63;3.15;;;;;;;;;;6319908;22;20058;-85
2021/07/22 08:45:10;;;;;;;6.15;3.42;;;;;;;;;;6323937;22;20011;-85
2021/07/22 08:47:43;;;;;;;6.20;3.75;;;;;;;;;;6326196;22;20031;-85
2021/07/22 08:50:11;;;;;;;7.38;3.47;;;;;;;;;;6326248;22;20031;-85
2021/07/22 08:52:38;;;;;;;7.65;3.60;;;;;;;;;;6320217;22;20047;-85
2021/07/22 08:55:05;;;;;;;5.05;3.45;;;;;;;;;;6315075;22;20133;-85
2021/07/22 08:57:33;;;;;;;5.97;3.30;;;;;;;;;;6319275;22;20026;-85
2021/07/22 09:00:00;;;;;;;6.03;3.35;;;;;;;;;;6310633;22;20023;-86
2021/07/22 09:02:30;;;;;;;8.73;3.20;;;;;;;;;;6317175;22;20019;-85
2021/07/22 09:05:01;;;;;;;7.25;3.83;;;;;;;;;;6313446;22;20098;-86
2021/07/22 09:07:29;;;;;;;6.50;3.85;;;;;;;;;;6313751;22;20075;-84
2021/07/22 09:10:05;;;;;;;6.53;3.30;;;;;;;;;;6309850;22;20075;-85
2021/07/22 09:12:44;;;;;;;7.07;3.47;;;;;;;;;;6309945;22;20248;-85
2021/07/22 09:15:35;;;;;;;6.53;3.50;;;;;;;;;;6310358;22;20241;-86
2021/07/22 09:18:21;;;;;;;8.23;3.28;;;;;;;;;;6309742;22;20042;-83
2021/07/22 09:20:48;;;;;;;4.90;3.03;;;;;;;;;;6307923;22;20151;-86
2021/07/22 09:23:18;;;;;;;6.65;3.95;;;;;;;;;;6310332;22;20057;-84
2021/07/22 09:25:46;;;;;;;7.03;3.33;;;;;;;;;;6309086;22;20031;-85
2021/07/22 09:28:17;;;;;;;6.43;4.07;;;;;;;;;;6309517;22;20023;-85
2021/07/22 09:31:03;;;;;;;6.22;3.40;;;;;;;;;;6335258;22;20042;-85
2021/07/22 09:33:29;;;;;;;;;;;;;;;;;;6317114;22;20053;-84
2021/07/22 09:36:06;;;;;;;9.98;3.67;;;;;;;;;;6317824;22;19944;-84
2021/07/22 09:38:33;;;;;;;6.85;4.05;;;;;;;;;;6344313;22;20062;-84
2021/07/22 09:41:00;;;;;;;7.03;3.83;;;;;;;;;;6318636;22;20033;-85
2021/07/22 09:43:55;;;;;;;7.30;3.88;;;;;;;;;;6321422;22;20030;-85
2021/07/22 09:46:40;;;;;;;9.25;4.20;;;;;;;;;;6311791;22;20130;-85
2021/07/22 09:49:08;;;;;;;6.53;3.97;;;;;;;;;;6319287;22;20030;-84
2021/07/22 09:51:38;;;;;;;6.20;3.70;;;;;;;;;;6321639;22;20386;-84
2021/07/22 09:54:12;;;;;;;7.70;3.97;;;;;;;;;;6316708;22;20026;-85
2021/07/22 09:56:39;;;;;;;4.85;3.47;;;;;;;;;;6316492;22;20037;-85
2021/07/22 09:59:08;;;;;;;5.68;3.75;;;;;;;;;;6316978;22;20022;-85
2021/07/22 10:01:44;;;;;;;8.40;3.58;;;;;;;;;;6345223;22;20106;-86
2021/07/22 10:04:14;;;;;;;7.38;3.50;;;;;;;;;;6347200;22;20273;-86
2021/07/22 10:06:45;;;;;;;4.20;2.63;;;;;;;;;;6353169;22;20021;-85
2021/07/22 10:09:18;;;;;;;5.07;3.33;;;;;;;;;;6355980;22;20021;-85
2021/07/22 10:11:48;;;;;;;10.40;3.22;;;;;;;;;;6345157;22;20034;-84
2021/07/22 10:14:16;;;;;;;9.85;3.67;;;;;;;;;;6313404;22;20376;-85
2021/07/22 10:16:47;;;;;;;8.65;3.20;;;;;;;;;;6321234;22;20011;-84
2021/07/22 10:19:15;;;;;;;5.50;3.50;;;;;;;;;;6324010;22;20033;-84
2021/07/22 10:21:42;;;;;;;8.02;3.55;;;;;;;;;;6345215;22;20154;-85
2021/07/22 10:24:09;;;;;;;7.63;3.70;;;;;;;;;;6322295;22;20011;-85
2021/07/22 10:26:40;;;;;;;6.90;3.92;;;;;;;;;;6322023;22;20141;-85
2021/07/22 10:29:07;;;;;;;6.47;3.88;;;;;;;;;;6318305;22;20081;-84
2021/07/22 10:31:38;;;;;;;9.10;4.00;;;;;;;;;;6340855;22;20270;-85
2021/07/22 10:34:09;;;;;;;8.68;3.50;;;;;;;;;;6313590;22;20044;-84
2021/07/22 10:36:36;;;;;;;7.75;3.45;;;;;;;;;;6313478;22;20027;-85
2021/07/22 10:39:03;;;;;;;7.20;3.50;;;;;;;;;;6314000;22;20027;-84
2021/07/22 10:41:36;;;;;;;8.10;3.60;;;;;;;;;;6346733;22;20018;-84
2021/07/22 10:44:05;;;;;;;5.90;3.35;;;;;;;;;;6326193;22;20019;-85
2021/07/22 10:46:53;;;;;;;4.85;3.08;;;;;;;;;;6324747;22;20010;-85
2021/07/22 10:49:20;;;;;;;6.05;3.10;;;;;;;;;;6353066;22;20259;-85
2021/07/22 10:51:46;;;;;;;6.47;3.65;;;;;;;;;;6351175;22;20019;-84
2021/07/22 10:54:35;;;;;;;6.28;3.58;;;;;;;;;;6346837;22;20027;-84
2021/07/22 10:57:02;;;;;;;8.40;4.25;;;;;;;;;;6317146;22;20050;-84
2021/07/22 10:59:58;;;;;;;7.90;3.70;;;;;;;;;;6318523;22;20023;-84
2021/07/22 11:02:53;;;;;;;8.13;4.45;;;;;;;;;;6297786;22;20037;-87
2021/07/22 11:05:26;;;;;;;6.22;3.55;;;;;;;;;;6324006;22;20309;-84
2021/07/22 11:08:31;;;;;;;5.75;3.95;;;;;;;;;;6341196;22;20026;-83
2021/07/22 11:11:03;;;;;;;7.25;3.22;;;;;;;;;;6314507;22;20027;-84
2021/07/22 11:13:33;;;;;;;7.00;3.65;;;;;;;;;;6315172;22;20471;-84
2021/07/22 11:16:28;;;;;;;6.15;3.25;;;;;;;;;;6322073;22;20327;-86
2021/07/22 11:18:56;;;;;;;8.10;3.10;;;;;;;;;;6320628;22;20026;-84
2021/07/22 11:21:37;;;;;;;5.63;3.17;;;;;;;;;;6323794;22;20190;-84
2021/07/22 11:24:07;;;;;;;5.05;3.45;;;;;;;;;;6322093;22;20022;-85
2021/07/22 11:26:35;;;;;;;7.40;3.53;;;;;;;;;;6323995;22;20067;-84
2021/07/22 11:29:11;;;;;;;6.00;3.15;;;;;;;;;;6343407;22;20011;-84
2021/07/22 11:31:39;;;;;;;5.85;3.40;;;;;;;;;;6346071;22;20023;-84
2021/07/22 11:34:06;;;;;;;6.88;3.13;;;;;;;;;;6316445;22;20256;-84
2021/07/22 11:36:33;;;;;;;6.15;3.08;;;;;;;;;;6315827;22;20026;-84
2021/07/22 11:39:00;;;;;;;9.20;3.78;;;;;;;;;;6316212;22;20074;-85
2021/07/22 11:41:27;;;;;;;7.40;3.00;;;;;;;;;;6343804;22;20010;-85
2021/07/22 11:43:55;;;;;;;6.18;3.08;;;;;;;;;;6348922;22;20026;-86
2021/07/22 11:46:39;;;;;;;7.90;3.38;;;;;;;;;;6344999;22;20023;-85
2021/07/22 11:49:06;;;;;;;6.03;3.00;;;;;;;;;;6317956;22;20027;-85
2021/07/22 11:51:33;;;;;;;7.63;3.45;;;;;;;;;;6320654;22;20532;-85
2021/07/22 11:54:00;;;;;;;9.40;4.20;;;;;;;;;;6316310;22;20011;-84
2021/07/22 11:56:32;;;;;;;7.30;3.47;;;;;;;;;;6314216;22;20023;-86
2021/07/22 11:59:06;;;;;;;8.15;3.40;;;;;;;;;;6314610;22;20027;-85
2021/07/22 12:01:34;;;;;;;8.82;3.15;;;;;;;;;;6341173;22;20023;-85
2021/07/22 12:04:03;;;;;;;6.28;2.75;;;;;;;;;;6338382;22;20023;-85
2021/07/22 12:06:49;;;;;;;6.75;2.60;;;;;;;;;;6346862;22;20019;-86
2021/07/22 12:09:16;;;;;;;8.60;2.70;;;;;;;;;;6316086;22;20066;-84
2021/07/22 12:11:49;;;;;;;4.75;2.78;;;;;;;;;;6316900;22;20037;-84
2021/07/22 12:14:29;;;;;;;10.18;3.08;;;;;;;;;;6342825;22;20034;-86
2021/07/22 12:17:10;;;;;;;6.75;3.17;;;;;;;;;;6342835;22;20416;-84
2021/07/22 12:19:38;;;;;;;8.52;3.65;;;;;;;;;;6343559;22;20014;-84
2021/07/22 12:22:21;;;;;;;8.48;3.00;;;;;;;;;;6318561;22;20022;-85
2021/07/22 12:25:10;;;;;;;8.95;3.15;;;;;;;;;;6345472;22;20259;-85
2021/07/22 12:27:38;;;;;;;8.63;3.25;;;;;;;;;;6338758;22;20033;-84
2021/07/22 12:30:06;;;;;;;5.20;3.40;;;;;;;;;;6317204;22;20023;-85
2021/07/22 12:32:35;;;;;;;8.75;3.03;;;;;;;;;;6342570;22;20027;-85
2021/07/22 12:35:03;;;;;;;5.60;2.97;;;;;;;;;;6314245;22;20026;-85
2021/07/22 12:37:48;;;;;;;6.20;3.05;;;;;;;;;;6339204;22;20175;-85
2021/07/22 12:40:15;;;;;;;8.55;3.55;;;;;;;;;;6312537;22;20021;-84
2021/07/22 12:42:58;;;;;;;6.30;3.30;;;;;;;;;;6310270;22;20320;-84
2021/07/22 12:45:34;;;;;;;6.43;2.90;;;;;;;;;;6341807;22;20049;-84
2021/07/22 12:48:02;;;;;;;6.05;3.08;;;;;;;;;;6339856;22;20031;-84
2021/07/22 12:50:33;;;;;;;5.93;2.58;;;;;;;;;;6315970;22;20056;-85
2021/07/22 12:53:09;;;;;;;4.28;2.63;;;;;;;;;;6321610;22;20027;-84
2021/07/22 12:55:38;;;;;;;4.85;3.10;;;;;;;;;;6316192;22;20128;-85
2021/07/22 12:58:06;;;;;;;3.75;2.25;;;;;;;;;;6319694;22;20131;-84
2021/07/22 13:00:42;;;;;;;4.07;3.03;;;;;;;;;;6356308;22;20203;-85
2021/07/22 13:03:13;;;;;;;7.70;3.00;;;;;;;;;;6323803;22;20019;-84
2021/07/22 13:05:40;;;;;;;7.47;3.10;;;;;;;;;;6317964;22;20079;-85
2021/07/22 13:08:07;;;;;;;5.78;1.98;;;;;;;;;;6314460;22;20023;-84
2021/07/22 13:10:45;;;;;;;7.82;2.25;;;;;;;;;;6351206;22;20050;-84
2021/07/22 13:13:12;;;;;;;6.30;2.55;;;;;;;;;;6317025;22;20026;-83
2021/07/22 13:15:40;;;;;;;4.22;2.75;;;;;;;;;;6314651;22;20050;-84
2021/07/22 13:18:10;;;;;;;2.78;2.30;;;;;;;;;;6315589;22;20034;-85
2021/07/22 13:20:39;;;;;;;6.97;2.30;;;;;;;;;;6340470;22;20043;-84
2021/07/22 13:23:06;;;;;;;8.18;2.22;;;;;;;;;;6313198;22;20057;-85
2021/07/22 13:25:32;;;;;;;5.30;2.40;;;;;;;;;;6314704;22;20025;-84
2021/07/22 13:28:02;;;;;;;4.57;2.15;;;;;;;;;;6313713;22;20038;-84
2021/07/22 13:30:29;;;;;;;4.88;1.98;;;;;;;;;;6306252;22;20289;-84
2021/07/22 13:33:01;;;;;;;4.53;1.90;;;;;;;;;;6307299;22;20460;-85
2021/07/22 13:35:34;;;;;;;5.25;2.60;;;;;;;;;;6308271;22;20272;-84
2021/07/22 13:38:02;;;;;;;5.38;2.40;;;;;;;;;;6305997;22;20107;-85
2021/07/22 13:40:33;;;;;;;6.78;2.75;;;;;;;;;;6304354;22;20055;-85
2021/07/22 13:43:01;;;;;;;5.80;2.95;;;;;;;;;;6306087;22;20205;-85
2021/07/22 13:45:29;;;;;;;8.23;3.03;;;;;;;;;;6308254;22;20051;-85
2021/07/22 13:47:56;;;;;;;5.10;2.40;;;;;;;;;;6310609;22;20096;-83
2021/07/22 13:50:25;;;;;;;5.47;2.70;;;;;;;;;;6307092;22;20051;-85
2021/07/22 13:52:52;;;;;;;4.43;2.45;;;;;;;;;;6305603;22;20107;-85
2021/07/22 13:55:19;;;;;;;5.60;2.75;;;;;;;;;;6308697;22;20023;-84
2021/07/22 13:57:45;;;;;;;4.78;2.90;;;;;;;;;;6305718;22;20064;-83
2021/07/22 14:00:12;;;;;;;8.50;2.70;;;;;;;;;;6305264;22;20064;-85
2021/07/22 14:02:39;;;;;;;4.07;2.50;;;;;;;;;;6304003;22;20027;-85
2021/07/22 14:05:06;;;;;;;4.60;1.83;;;;;;;;;;6304736;22;20037;-86
2021/07/22 14:07:33;;;;;;;6.32;2.33;;;;;;;;;;6300588;22;20052;-84
2021/07/22 14:10:02;;;;;;;5.75;2.53;;;;;;;;;;6302824;22;20168;-85
2021/07/22 14:12:31;;;;;;;5.93;3.08;;;;;;;;;;6303729;22;20511;-84
2021/07/22 14:15:00;;;;;;;6.85;2.85;;;;;;;;;;6303527;22;20159;-84
2021/07/22 14:17:26;;;;;;;6.45;2.08;;;;;;;;;;6306340;22;20098;-85
2021/07/22 14:19:57;;;;;;;7.88;2.10;;;;;;;;;;6304687;22;20071;-85
2021/07/22 14:22:23;;;;;;;3.30;2.17;;;;;;;;;;6306642;22;20034;-85
2021/07/22 14:24:53;;;;;;;5.55;2.63;;;;;;;;;;6305286;22;20427;-85
2021/07/22 14:27:21;;;;;;;4.03;2.30;;;;;;;;;;6310561;22;20109;-85
2021/07/22 14:29:47;;;;;;;6.55;2.70;;;;;;;;;;6319817;22;20027;-85
2021/07/22 14:32:14;;;;;;;10.45;3.28;;;;;;;;;;6318825;22;20007;-84
2021/07/22 14:34:43;;;;;;;6.25;2.38;;;;;;;;;;6320894;22;20028;-85
2021/07/22 14:37:09;;;;;;;4.45;2.20;;;;;;;;;;6319687;22;20087;-84
2021/07/22 14:39:37;;;;;;;6.57;2.58;;;;;;;;;;6309826;22;20039;-84
2021/07/22 14:42:04;;;;;;;5.65;2.30;;;;;;;;;;6306075;22;20413;-84
2021/07/22 14:44:37;;;;;;;5.60;2.33;;;;;;;;;;6305543;22;20177;-86
2021/07/22 14:47:04;;;;;;;8.95;3.05;;;;;;;;;;6305827;22;20079;-85
2021/07/22 14:49:30;;;;;;;9.60;2.83;;;;;;;;;;6302090;22;20237;-86